TAF LFKS
AMD LFKS 081713Z 0817/0915 CNL=
METAR LFKS
LFKS 082200Z AUTO VRB05KT 9999 SCT052/// BKN074/// BKN120/// ///CB 09/03 Q1000=
LFKS 082130Z AUTO VRB07KT 9999 FEW044/// SCT054/// BKN082/// ///TCU 10/03 Q1000=
LFKS 082100Z AUTO 30009KT 250V340 9999 FEW048/// BKN060/// BKN160/// ///TCU 11/02 Q1000=
LFKS 082030Z AUTO 29009G21KT 250V340 9999 FEW056/// OVC068/// ///TCU 13/02 Q1000=
LFKS 082000Z AUTO 33009KT 270V360 9999 SCT066/// OVC160/// ///TCU 12/03 Q0999=
WC LFKS
WS LFKS
WV LFKS